createdAt,value
2018-05-17T00:00:15.369Z,20.40
2018-05-17T00:02:43.110Z,21.55
2018-05-17T00:05:10.865Z,22.75
2018-05-17T00:07:39.364Z,21.77
2018-05-17T00:10:07.146Z,21.67
2018-05-17T00:12:34.888Z,23.05
2018-05-17T00:15:02.616Z,23.00
2018-05-17T00:17:31.140Z,24.45
2018-05-17T00:19:58.919Z,24.80
2018-05-17T00:22:26.698Z,25.17
2018-05-17T00:24:54.471Z,24.52
2018-05-17T00:27:22.230Z,25.77
2018-05-17T00:29:50.026Z,25.62
2018-05-17T00:32:17.793Z,24.08
2018-05-17T00:34:45.524Z,25.58
2018-05-17T00:37:14.072Z,24.50
2018-05-17T00:39:42.565Z,27.75
2018-05-17T00:42:10.293Z,28.85
2018-05-17T00:44:38.058Z,28.58
2018-05-17T00:47:05.789Z,29.17
2018-05-17T00:49:33.555Z,29.90
2018-05-17T00:52:01.290Z,31.70
2018-05-17T00:54:29.080Z,30.77
2018-05-17T00:56:56.823Z,31.77
2018-05-17T00:59:25.368Z,31.12
2018-05-17T01:01:53.130Z,31.37
2018-05-17T01:04:20.887Z,30.27
2018-05-17T01:06:48.621Z,29.15
2018-05-17T01:09:16.382Z,27.65
2018-05-17T01:11:44.145Z,31.65
2018-05-17T01:14:11.885Z,30.90
2018-05-17T01:16:39.645Z,27.52
2018-05-17T01:19:08.148Z,30.10
2018-05-17T01:21:35.911Z,28.75
2018-05-17T01:24:03.661Z,29.65
2018-05-17T01:26:31.423Z,31.55
2018-05-17T01:28:59.149Z,31.52
2018-05-17T01:31:26.902Z,31.05
2018-05-17T01:33:54.848Z,27.95
2018-05-17T01:36:22.626Z,30.88
2018-05-17T01:38:50.348Z,29.35
2018-05-17T01:41:18.083Z,28.83
2018-05-17T01:43:45.849Z,30.52
2018-05-17T01:46:13.582Z,30.73
2018-05-17T01:48:41.354Z,32.00
2018-05-17T01:51:09.856Z,33.03
2018-05-17T01:53:37.620Z,32.75
2018-05-17T01:56:05.354Z,30.20
2018-05-17T01:58:33.891Z,29.40
2018-05-17T02:01:02.415Z,31.77
2018-05-17T02:03:30.976Z,30.15
2018-05-17T02:05:58.774Z,33.70
2018-05-17T02:08:27.292Z,31.33
2018-05-17T02:10:55.055Z,28.15
2018-05-17T02:13:22.826Z,29.80
2018-05-17T02:15:50.593Z,27.92
2018-05-17T02:18:18.329Z,28.45
2018-05-17T02:20:46.106Z,27.40
2018-05-17T02:23:13.855Z,28.73
2018-05-17T02:25:41.616Z,27.62
2018-05-17T02:28:09.395Z,28.33
2018-05-17T02:30:37.191Z,26.20
2018-05-17T02:33:05.692Z,27.20
2018-05-17T02:35:33.453Z,27.20
2018-05-17T02:38:01.208Z,28.98
2018-05-17T02:40:29.715Z,28.40
2018-05-17T02:42:57.503Z,28.87
2018-05-17T02:45:25.243Z,27.58
2018-05-17T02:47:53.012Z,28.90
2018-05-17T02:50:20.744Z,30.98
2018-05-17T02:52:48.534Z,27.50
2018-05-17T02:55:16.271Z,28.38
2018-05-17T02:57:44.048Z,28.55
2018-05-17T03:00:11.831Z,31.12
2018-05-17T03:02:39.612Z,30.60
2018-05-17T03:05:07.363Z,30.90
2018-05-17T03:07:35.100Z,29.35
2018-05-17T03:10:02.880Z,31.37
2018-05-17T03:12:30.627Z,30.70
2018-05-17T03:14:58.388Z,29.80
2018-05-17T03:17:26.119Z,30.25
2018-05-17T03:19:53.892Z,31.02
2018-05-17T03:22:21.645Z,30.30
2018-05-17T03:24:49.428Z,27.73
2018-05-17T03:27:17.175Z,31.58
2018-05-17T03:29:44.964Z,25.60
2018-05-17T03:32:12.747Z,30.02
2018-05-17T03:34:40.480Z,31.37
2018-05-17T03:37:08.253Z,29.55
2018-05-17T03:39:35.997Z,27.15
2018-05-17T03:42:03.775Z,30.58
2018-05-17T03:44:31.528Z,28.00
2018-05-17T03:46:59.308Z,30.15
2018-05-17T03:49:27.044Z,28.65
2018-05-17T03:51:54.806Z,28.27
2018-05-17T03:54:22.550Z,26.67
2018-05-17T03:56:50.319Z,29.33
2018-05-17T03:59:18.056Z,29.17
2018-05-17T04:01:58.511Z,29.45
2018-05-17T04:04:38.785Z,24.95
2018-05-17T04:07:06.605Z,26.00
2018-05-17T04:09:34.355Z,27.40
2018-05-17T04:12:02.102Z,25.73
2018-05-17T04:14:29.892Z,25.90
2018-05-17T04:16:57.752Z,27.23
2018-05-17T04:19:25.520Z,25.08
2018-05-17T04:21:53.274Z,24.63
2018-05-17T04:24:21.050Z,24.33
2018-05-17T04:26:48.838Z,25.80
2018-05-17T04:29:16.803Z,28.48
2018-05-17T04:31:45.299Z,28.00
2018-05-17T04:34:13.041Z,26.55
2018-05-17T04:36:41.594Z,26.05
2018-05-17T04:39:09.366Z,23.40
2018-05-17T04:41:37.924Z,24.08
2018-05-17T04:44:05.669Z,22.13
2018-05-17T04:46:33.447Z,21.95
2018-05-17T04:49:01.218Z,22.85
2018-05-17T04:51:29.008Z,22.80
2018-05-17T04:53:57.511Z,23.48
2018-05-17T04:56:25.275Z,22.40
2018-05-17T04:58:53.370Z,24.70
2018-05-17T05:01:21.938Z,21.50
2018-05-17T05:03:49.692Z,27.50
2018-05-17T05:06:17.429Z,22.02
2018-05-17T05:08:45.961Z,27.37
2018-05-17T05:11:13.691Z,24.40
2018-05-17T05:13:41.454Z,24.98
2018-05-17T05:16:09.207Z,25.08
2018-05-17T05:18:37.022Z,23.17
2018-05-17T05:21:04.793Z,22.60
2018-05-17T05:23:32.555Z,22.25
2018-05-17T05:26:00.419Z,23.50
2018-05-17T05:28:28.189Z,23.80
2018-05-17T05:30:56.749Z,22.33
2018-05-17T05:33:24.549Z,21.50
2018-05-17T05:35:53.083Z,22.45
2018-05-17T05:38:20.818Z,20.37
2018-05-17T05:40:48.621Z,24.35
2018-05-17T05:43:16.388Z,24.90
2018-05-17T05:45:44.923Z,23.27
2018-05-17T05:48:12.648Z,22.50
2018-05-17T05:50:41.183Z,25.30
2018-05-17T05:53:08.917Z,23.12
2018-05-17T05:55:36.692Z,24.50
2018-05-17T05:58:04.442Z,25.10
2018-05-17T06:00:32.201Z,23.60
2018-05-17T06:03:00.980Z,25.58
2018-05-17T06:05:28.771Z,23.35
2018-05-17T06:07:56.514Z,24.65
2018-05-17T06:10:25.097Z,24.10
2018-05-17T06:12:52.890Z,23.83
2018-05-17T06:15:20.641Z,26.58
2018-05-17T06:17:49.204Z,24.50
2018-05-17T06:20:16.964Z,26.80
2018-05-17T06:22:44.761Z,27.55
2018-05-17T06:25:12.536Z,28.15
2018-05-17T06:27:40.488Z,27.23
2018-05-17T06:30:08.263Z,30.80
2018-05-17T06:32:36.067Z,28.98
2018-05-17T06:35:05.214Z,29.40
2018-05-17T06:37:33.068Z,29.98
2018-05-17T06:40:00.913Z,29.92
2018-05-17T06:42:28.684Z,31.67
2018-05-17T06:44:56.543Z,30.15
2018-05-17T06:47:24.311Z,29.55
2018-05-17T06:49:52.106Z,30.33
2018-05-17T06:52:20.673Z,27.00
2018-05-17T06:54:49.261Z,28.42
2018-05-17T06:57:17.019Z,27.75
2018-05-17T06:59:44.863Z,28.08
2018-05-17T07:02:12.607Z,26.62
2018-05-17T07:04:40.405Z,26.17
2018-05-17T07:07:08.201Z,28.38
2018-05-17T07:09:35.959Z,26.45
2018-05-17T07:12:04.528Z,27.23
2018-05-17T07:14:33.053Z,27.95
2018-05-17T07:17:00.835Z,28.65
2018-05-17T07:19:28.586Z,27.83
2018-05-17T07:21:56.360Z,28.33
2018-05-17T07:24:24.122Z,27.13
2018-05-17T07:26:51.913Z,26.95
2018-05-17T07:29:19.659Z,23.95
2018-05-17T07:31:47.437Z,24.50
2018-05-17T07:34:15.181Z,22.75
2018-05-17T07:36:42.965Z,23.25
2018-05-17T07:39:10.727Z,24.25
2018-05-17T07:41:39.289Z,23.90
2018-05-17T07:44:07.065Z,23.62
2018-05-17T07:46:34.847Z,23.92
2018-05-17T07:49:03.419Z,24.50
2018-05-17T07:51:31.927Z,24.02
2018-05-17T07:53:59.700Z,24.12
2018-05-17T07:56:27.468Z,22.17
2018-05-17T07:58:55.255Z,23.00
2018-05-17T08:01:23.002Z,23.33
2018-05-17T08:03:50.769Z,24.77
2018-05-17T08:06:18.513Z,22.27
2018-05-17T08:08:46.303Z,23.38
2018-05-17T08:11:14.033Z,24.87
2018-05-17T08:13:41.796Z,25.33
2018-05-17T08:16:09.554Z,25.95
2018-05-17T08:18:37.290Z,25.40
2018-05-17T08:21:05.824Z,22.85
2018-05-17T08:23:33.565Z,25.73
2018-05-17T08:26:01.356Z,24.00
2018-05-17T08:28:29.898Z,24.45
2018-05-17T08:30:57.671Z,25.27
2018-05-17T08:33:25.426Z,24.52
2018-05-17T08:35:53.189Z,24.98
2018-05-17T08:38:20.934Z,27.00
2018-05-17T08:40:48.712Z,24.83
2018-05-17T08:43:16.447Z,21.12
2018-05-17T08:45:44.248Z,23.15
2018-05-17T08:48:12.029Z,22.00
2018-05-17T08:50:39.786Z,23.77
2018-05-17T08:53:07.535Z,22.35
2018-05-17T08:55:35.283Z,20.75
2018-05-17T08:58:03.056Z,21.58
2018-05-17T09:00:31.572Z,21.83
2018-05-17T09:02:59.338Z,20.25
2018-05-17T09:05:27.842Z,19.55
2018-05-17T09:07:55.620Z,19.23
2018-05-17T09:10:23.358Z,19.10
2018-05-17T09:12:51.093Z,18.92
2018-05-17T09:15:18.854Z,19.35
2018-05-17T09:17:46.592Z,18.00
2018-05-17T09:20:14.471Z,17.87
2018-05-17T09:22:42.148Z,16.20
2018-05-17T09:25:10.676Z,17.52
2018-05-17T09:27:38.435Z,15.43
2018-05-17T09:30:06.248Z,18.00
2018-05-17T09:32:33.994Z,16.70
2018-05-17T09:35:01.768Z,16.00
2018-05-17T09:37:29.519Z,17.08
2018-05-17T09:39:57.357Z,14.50
2018-05-17T09:42:25.093Z,16.27
2018-05-17T09:44:52.824Z,14.30
2018-05-17T09:47:20.593Z,15.25
2018-05-17T09:49:49.093Z,15.10
2018-05-17T09:52:17.619Z,15.88
2018-05-17T09:54:45.351Z,13.35
2018-05-17T09:57:13.108Z,15.05
2018-05-17T09:59:40.838Z,14.35
2018-05-17T10:02:09.363Z,16.15
2018-05-17T10:04:37.097Z,13.93
2018-05-17T10:07:04.859Z,13.43
2018-05-17T10:09:32.593Z,14.43
2018-05-17T10:12:00.387Z,12.57
2018-05-17T10:14:28.120Z,11.48
2018-05-17T10:16:56.661Z,14.35
2018-05-17T10:19:24.428Z,13.40
2018-05-17T10:21:52.241Z,14.25
2018-05-17T10:24:19.967Z,13.50
2018-05-17T10:26:47.697Z,12.57
2018-05-17T10:29:15.480Z,12.32
2018-05-17T10:31:43.220Z,12.98
2018-05-17T10:34:11.008Z,13.10
2018-05-17T10:36:38.747Z,13.35
2018-05-17T10:39:06.560Z,14.05
2018-05-17T10:41:35.047Z,12.60
2018-05-17T10:44:03.588Z,13.77
2018-05-17T10:46:31.359Z,11.60
2018-05-17T10:48:59.114Z,12.20
2018-05-17T10:51:26.920Z,12.60
2018-05-17T10:53:55.432Z,11.70
2018-05-17T10:56:23.194Z,13.23
2018-05-17T10:58:50.923Z,12.57
2018-05-17T11:01:18.693Z,12.90
2018-05-17T11:03:46.456Z,12.82
2018-05-17T11:06:14.207Z,11.90
2018-05-17T11:08:41.937Z,11.68
2018-05-17T11:11:09.731Z,12.18
2018-05-17T11:13:37.459Z,12.15
2018-05-17T11:16:05.220Z,11.45
2018-05-17T11:18:33.040Z,13.32
2018-05-17T11:21:00.782Z,13.25
2018-05-17T11:23:28.543Z,12.10
2018-05-17T11:25:56.287Z,13.05
2018-05-17T11:28:24.077Z,12.85
2018-05-17T11:30:51.811Z,13.13
2018-05-17T11:33:20.340Z,12.85
2018-05-17T11:35:48.086Z,12.35
2018-05-17T11:38:15.845Z,14.45
2018-05-17T11:40:43.592Z,15.07
2018-05-17T11:43:11.403Z,13.02
2018-05-17T11:45:39.172Z,15.20
2018-05-17T11:48:06.935Z,13.07
2018-05-17T11:50:34.710Z,13.75
2018-05-17T11:53:02.459Z,12.68
2018-05-17T11:55:30.237Z,13.70
2018-05-17T11:57:57.978Z,13.20
2018-05-17T12:00:25.753Z,13.25
2018-05-17T12:02:53.488Z,13.90
2018-05-17T12:05:22.024Z,11.73
2018-05-17T12:07:49.760Z,12.98
2018-05-17T12:10:17.544Z,12.00
2018-05-17T12:12:46.053Z,11.60
2018-05-17T12:15:13.789Z,11.57
2018-05-17T12:17:42.322Z,11.40
2018-05-17T12:20:10.068Z,11.57
2018-05-17T12:22:37.824Z,11.18
2018-05-17T12:25:05.552Z,12.05
2018-05-17T12:27:33.329Z,12.35
2018-05-17T12:30:01.060Z,11.70
2018-05-17T12:32:29.595Z,12.00
2018-05-17T12:34:57.393Z,11.40
2018-05-17T12:37:25.196Z,13.60
2018-05-17T12:39:52.943Z,11.93
2018-05-17T12:42:20.761Z,13.43
2018-05-17T12:44:48.531Z,12.60
2018-05-17T12:47:16.277Z,12.32
2018-05-17T12:49:44.036Z,12.37
2018-05-17T12:52:11.824Z,11.35
2018-05-17T12:54:39.612Z,11.55
2018-05-17T12:57:08.104Z,10.88
2018-05-17T12:59:35.891Z,11.25
2018-05-17T13:02:03.634Z,10.50
2018-05-17T13:04:31.408Z,11.20
2018-05-17T13:06:59.152Z,10.35
2018-05-17T13:09:26.921Z,12.23
2018-05-17T13:11:54.649Z,10.30
2018-05-17T13:14:23.201Z,10.80
2018-05-17T13:16:51.699Z,9.40
2018-05-17T13:19:19.442Z,10.50
2018-05-17T13:21:47.231Z,10.50
2018-05-17T13:24:15.756Z,12.55
2018-05-17T13:26:43.538Z,11.23
2018-05-17T13:29:11.308Z,10.18
2018-05-17T13:31:39.113Z,9.65
2018-05-17T13:34:06.863Z,10.68
2018-05-17T13:36:35.419Z,9.68
2018-05-17T13:39:03.164Z,9.95
2018-05-17T13:41:30.919Z,11.65
2018-05-17T13:43:58.742Z,9.93
2018-05-17T13:46:27.721Z,11.20
2018-05-17T13:48:56.252Z,10.88
2018-05-17T13:51:23.987Z,8.85
2018-05-17T13:53:51.752Z,10.15
2018-05-17T13:56:25.046Z,11.20
2018-05-17T13:58:53.579Z,9.50
2018-05-17T14:01:21.308Z,10.75
2018-05-17T14:03:49.096Z,11.18
2018-05-17T14:06:16.826Z,11.60
2018-05-17T14:08:44.617Z,9.63
2018-05-17T14:11:12.515Z,10.98
2018-05-17T14:13:40.342Z,10.63
2018-05-17T14:16:08.217Z,9.20
2018-05-17T14:18:36.023Z,11.07
2018-05-17T14:21:03.791Z,10.65
2018-05-17T14:23:31.531Z,10.00
2018-05-17T14:26:00.143Z,11.15
2018-05-17T14:28:28.700Z,9.30
2018-05-17T14:30:56.461Z,10.25
2018-05-17T14:33:24.235Z,9.73
2018-05-17T14:35:52.012Z,10.52
2018-05-17T14:38:19.797Z,11.38
2018-05-17T14:40:47.593Z,11.82
2018-05-17T14:43:16.122Z,11.00
2018-05-17T14:45:43.883Z,12.13
2018-05-17T14:48:11.648Z,10.80
2018-05-17T14:50:39.457Z,12.55
2018-05-17T14:53:07.985Z,13.10
2018-05-17T14:55:35.772Z,11.38
2018-05-17T14:58:04.343Z,11.70
2018-05-17T15:00:32.262Z,13.27
2018-05-17T15:03:00.804Z,12.40
2018-05-17T15:05:28.547Z,12.45
2018-05-17T15:07:56.362Z,12.30
2018-05-17T15:10:25.507Z,11.40
2018-05-17T15:12:53.267Z,12.45
2018-05-17T15:15:21.013Z,10.85
2018-05-17T15:17:48.802Z,9.93
2018-05-17T15:20:16.576Z,11.40
2018-05-17T15:22:44.352Z,11.02
2018-05-17T15:25:12.848Z,10.02
2018-05-17T15:27:41.435Z,10.13
2018-05-17T15:30:09.196Z,10.55
2018-05-17T15:32:36.946Z,11.30
2018-05-17T15:35:05.477Z,10.82
2018-05-17T15:37:33.211Z,12.88
2018-05-17T15:40:00.966Z,11.88
2018-05-17T15:42:28.695Z,11.75
2018-05-17T15:44:56.490Z,11.10
2018-05-17T15:47:24.228Z,12.45
2018-05-17T15:49:52.807Z,10.98
2018-05-17T15:52:21.313Z,11.90
2018-05-17T15:54:49.056Z,11.98
2018-05-17T15:57:17.581Z,12.65
2018-05-17T15:59:46.091Z,12.37
2018-05-17T16:02:13.872Z,13.07
2018-05-17T16:04:42.381Z,12.05
2018-05-17T16:07:10.155Z,13.30
2018-05-17T16:09:37.928Z,11.50
2018-05-17T16:12:06.467Z,11.40
2018-05-17T16:14:35.093Z,12.07
2018-05-17T16:17:03.613Z,12.75
2018-05-17T16:19:32.142Z,11.82
2018-05-17T16:21:59.936Z,11.32
2018-05-17T16:24:27.691Z,12.93
2018-05-17T16:26:55.469Z,12.68
2018-05-17T16:29:23.235Z,12.90
2018-05-17T16:31:50.981Z,9.88
2018-05-17T16:34:18.756Z,11.20
2018-05-17T16:36:46.589Z,11.07
2018-05-17T16:39:14.356Z,10.00
2018-05-17T16:41:42.156Z,9.27
2018-05-17T16:44:10.705Z,9.50
2018-05-17T16:46:38.473Z,10.18
2018-05-17T16:49:06.233Z,9.35
2018-05-17T16:51:33.964Z,8.82
2018-05-17T16:54:01.732Z,8.20
2018-05-17T16:56:29.494Z,9.40
2018-05-17T16:58:58.013Z,9.05
2018-05-17T17:01:25.778Z,10.05
2018-05-17T17:03:54.279Z,11.18
2018-05-17T17:06:22.041Z,10.88
2018-05-17T17:08:49.783Z,11.02
2018-05-17T17:11:18.336Z,10.30
2018-05-17T17:13:46.081Z,11.25
2018-05-17T17:16:13.853Z,10.27
2018-05-17T17:18:41.597Z,11.02
2018-05-17T17:21:09.383Z,9.50
2018-05-17T17:23:37.153Z,9.95
2018-05-17T17:26:05.676Z,13.00
2018-05-17T17:28:33.442Z,9.30
2018-05-17T17:31:01.184Z,10.25
2018-05-17T17:33:28.983Z,12.60
2018-05-17T17:35:56.723Z,9.98
2018-05-17T17:38:24.507Z,9.55
2018-05-17T17:40:52.263Z,10.90
2018-05-17T17:43:20.023Z,11.32
2018-05-17T17:45:47.755Z,10.00
2018-05-17T17:48:16.289Z,8.57
2018-05-17T17:50:44.027Z,10.18
2018-05-17T17:53:11.804Z,9.25
2018-05-17T17:55:39.669Z,7.50
2018-05-17T17:58:07.400Z,7.40
2018-05-17T18:00:35.152Z,7.72
2018-05-17T18:03:03.654Z,6.80
2018-05-17T18:05:31.470Z,6.30
2018-05-17T18:07:59.221Z,6.25
2018-05-17T18:10:27.584Z,8.00
2018-05-17T18:12:55.376Z,8.80
2018-05-17T18:15:24.192Z,6.85
2018-05-17T18:17:51.928Z,7.10
2018-05-17T18:20:20.479Z,7.45
2018-05-17T18:22:48.241Z,6.80
2018-05-17T18:25:16.280Z,7.75
2018-05-17T18:27:44.876Z,7.05
2018-05-17T18:30:12.631Z,8.07
2018-05-17T18:32:40.418Z,7.70
2018-05-17T18:35:08.146Z,6.82
2018-05-17T18:37:35.912Z,7.60
2018-05-17T18:40:03.672Z,6.62
2018-05-17T18:42:31.424Z,7.15
2018-05-17T18:44:59.254Z,7.60
2018-05-17T18:47:27.012Z,8.00
2018-05-17T18:49:55.523Z,7.47
2018-05-17T18:52:23.280Z,7.57
2018-05-17T18:54:51.013Z,8.65
2018-05-17T18:57:19.567Z,8.27
2018-05-17T18:59:47.293Z,8.10
2018-05-17T19:02:15.108Z,8.90
2018-05-17T19:04:43.608Z,9.20
2018-05-17T19:07:11.356Z,10.23
2018-05-17T19:09:39.883Z,9.07
2018-05-17T19:12:07.625Z,10.55
2018-05-17T19:14:35.389Z,9.80
2018-05-17T19:17:03.112Z,10.40
2018-05-17T19:19:30.884Z,10.93
2018-05-17T19:21:59.401Z,11.40
2018-05-17T19:24:27.184Z,10.68
2018-05-17T19:26:54.994Z,9.82
2018-05-17T19:29:23.495Z,11.32
2018-05-17T19:31:51.255Z,10.68
2018-05-17T19:34:19.045Z,10.73
2018-05-17T19:36:46.796Z,9.23
2018-05-17T19:39:14.552Z,10.32
2018-05-17T19:41:42.440Z,11.32
2018-05-17T19:44:10.168Z,11.05
2018-05-17T19:46:37.969Z,10.35
2018-05-17T19:49:05.825Z,10.40
2018-05-17T19:51:33.594Z,9.98
2018-05-17T19:54:02.113Z,11.05
2018-05-17T19:56:30.732Z,9.52
2018-05-17T19:58:58.479Z,9.55
2018-05-17T20:01:26.220Z,10.45
2018-05-17T20:03:54.752Z,10.48
2018-05-17T20:06:22.475Z,9.88
2018-05-17T20:08:50.248Z,10.15
2018-05-17T20:11:18.057Z,12.05
2018-05-17T20:13:45.825Z,10.73
2018-05-17T20:16:13.612Z,10.38
2018-05-17T20:18:42.231Z,12.95
2018-05-17T20:21:10.386Z,15.68
2018-05-17T20:23:38.802Z,12.90
2018-05-17T20:26:06.554Z,15.75
2018-05-17T20:28:34.350Z,13.50
2018-05-17T20:31:02.116Z,15.90
2018-05-17T20:33:30.208Z,16.12
2018-05-17T20:35:58.033Z,14.70
2018-05-17T20:38:25.772Z,15.95
2018-05-17T20:40:53.529Z,17.10
2018-05-17T20:43:21.265Z,16.83
2018-05-17T20:45:49.075Z,16.90
2018-05-17T20:48:16.803Z,20.50
2018-05-17T20:50:44.577Z,18.85
2018-05-17T20:53:12.328Z,18.87
2018-05-17T20:55:40.148Z,18.67
2018-05-17T20:58:08.649Z,18.70
2018-05-17T21:00:36.466Z,18.35
2018-05-17T21:03:04.247Z,21.83
2018-05-17T21:05:32.885Z,21.40
2018-05-17T21:08:00.640Z,20.52
2018-05-17T21:10:28.372Z,20.55
2018-05-17T21:12:56.895Z,20.25
2018-05-17T21:15:24.640Z,20.23
2018-05-17T21:17:52.552Z,20.37
2018-05-17T21:20:20.279Z,20.73
2018-05-17T21:22:48.203Z,21.45
2018-05-17T21:25:16.009Z,20.73
2018-05-17T21:27:43.792Z,22.48
2018-05-17T21:30:11.541Z,20.92
2018-05-17T21:32:39.271Z,21.10
2018-05-17T21:35:07.028Z,22.30
2018-05-17T21:37:34.756Z,20.50
2018-05-17T21:40:02.517Z,21.65
2018-05-17T21:42:30.249Z,20.02
2018-05-17T21:44:58.865Z,21.27
2018-05-17T21:47:26.564Z,19.85
2018-05-17T21:49:54.331Z,21.25
2018-05-17T21:52:22.076Z,21.85
2018-05-17T21:54:49.864Z,20.88
2018-05-17T21:57:17.604Z,19.12
2018-05-17T21:59:45.333Z,20.15
2018-05-17T22:02:13.868Z,21.92
2018-05-17T22:04:41.612Z,20.88
2018-05-17T22:07:09.377Z,23.12
2018-05-17T22:09:37.115Z,23.25
2018-05-17T22:12:05.679Z,22.73
2018-05-17T22:14:34.188Z,21.52
2018-05-17T22:17:01.963Z,20.00
2018-05-17T22:19:29.718Z,21.77
2018-05-17T22:21:57.537Z,22.42
2018-05-17T22:24:25.272Z,21.95
2018-05-17T22:26:53.819Z,21.80
2018-05-17T22:29:21.560Z,22.52
2018-05-17T22:31:50.057Z,21.00
2018-05-17T22:34:17.818Z,22.48
2018-05-17T22:36:45.552Z,21.15
2018-05-17T22:39:14.076Z,20.52
2018-05-17T22:41:41.823Z,19.02
2018-05-17T22:44:09.584Z,21.42
2018-05-17T22:46:37.318Z,22.65
2018-05-17T22:49:05.849Z,22.30
2018-05-17T22:51:33.607Z,22.50
2018-05-17T22:54:01.392Z,20.10
2018-05-17T23:10:00.042Z,23.65
2018-05-17T23:12:27.848Z,22.65
2018-05-17T23:14:56.357Z,24.60
2018-05-17T23:17:24.133Z,22.13
2018-05-17T23:19:52.692Z,22.77
2018-05-17T23:22:38.345Z,23.45
2018-05-17T23:25:08.826Z,24.20
2018-05-17T23:27:36.614Z,24.00
2018-05-17T23:30:04.364Z,21.52
2018-05-17T23:32:32.124Z,22.35
2018-05-17T23:34:59.888Z,22.05
2018-05-17T23:37:27.654Z,23.08
2018-05-17T23:39:56.313Z,22.48
2018-05-17T23:42:24.484Z,22.35
2018-05-17T23:44:52.601Z,22.98
2018-05-17T23:47:20.458Z,22.23
2018-05-17T23:49:48.237Z,23.52
2018-05-17T23:52:16.740Z,24.35
2018-05-17T23:54:44.504Z,21.98
2018-05-17T23:57:12.236Z,22.85
2018-05-17T23:59:40.785Z,23.75
